Flight Track Log - Related Links

Times and Time Zones

All times are in EDT time to prevent confusion due to time zone crossing. See the AAL2360 flight status page for this flight to view local times or setup timezone preferences in your user account.

Time Position Orientation Groundspeed Altitude Reporting Facility
EDT Latitude Longitude Course Direction KTS MPH feet Rate Location/Type
Mon 03:35:13 PM 32.8833 -97.0333 180° South 169 194 1,500  Level Dallas / Fort Worth TRACON
Mon 03:35:44 PM 32.8667 -97.0333 180° South 194 223 2,200 2,044 Climbing Dallas / Fort Worth TRACON
Mon 03:36:44 PM 32.8000 -97.0000 157° South 243 280 4,600 2,592 Climbing Dallas / Fort Worth TRACON
Mon 03:37:49 PM 32.7667 -96.9333 121° Southeast 261 300 7,600 1,990 Climbing Dallas / Fort Worth TRACON
Mon 03:40:06 PM 32.8778 -96.8097 43° Northeast 286 329 11,300 1,523 Climbing Fort Worth Center
Mon 03:41:06 PM 32.9739 -96.8117 359° North 315 362 12,600 1,785 Climbing Fort Worth Center
Mon 03:42:07 PM 33.0678 -96.8136 359° North 361 415 14,900 2,500 Climbing Fort Worth Center
Mon 03:43:06 PM 33.1869 -96.8178 358° North 386 444 17,600 2,370 Climbing Fort Worth Center
Mon 03:44:06 PM 33.2869 -96.8194 359° North 386 444 19,600 2,000 Climbing Fort Worth Center
Mon 03:45:06 PM 33.4144 -96.8236 358° North 400 460 21,600 1,800 Climbing Fort Worth Center
Mon 03:46:06 PM 33.5122 -96.7881 17° North 407 468 23,200 1,686 Climbing Fort Worth Center
Mon 03:47:07 PM 33.6289 -96.7050 31° Northeast 412 474 25,000 1,650 Climbing Fort Worth Center
Mon 03:48:06 PM 33.7222 -96.6342 32° Northeast 432 497 26,500 1,714 Climbing Fort Worth Center
Mon 03:49:06 PM 33.8344 -96.5508 32° Northeast 438 504 28,400 1,700 Climbing Fort Worth Center
Mon 03:50:06 PM 33.9361 -96.4747 32° Northeast 430 495 29,900 1,400 Climbing Fort Worth Center
Mon 03:51:06 PM 34.0400 -96.3983 31° Northeast 430 495 31,200 1,300 Climbing Fort Worth Center
Mon 03:52:06 PM 34.1414 -96.3194 33° Northeast 430 495 32,500 893 Climbing Fort Worth Center
Mon 03:53:07 PM 34.2408 -96.2453 32° Northeast 430 495 33,000 250 Climbing Fort Worth Center
Mon 03:54:06 PM 34.3425 -96.1683 32° Northeast 430 495 33,000  Level Fort Worth Center
Mon 03:55:06 PM 34.4481 -96.0864 33° Northeast 430 495 33,000  Level Fort Worth Center
Mon 03:56:06 PM 34.5475 -96.0117 32° Northeast 430 495 33,000  Level Fort Worth Center
Mon 03:57:06 PM 34.6486 -95.9319 33° Northeast 430 495 33,000  Level Fort Worth Center
Mon 03:58:06 PM 34.7522 -95.8567 31° Northeast 430 495 33,000  Level Fort Worth Center
Mon 03:59:06 PM 34.8533 -95.7764 33° Northeast 430 495 33,000  Level Fort Worth Center
Mon 04:00:06 PM 34.9522 -95.6883 36° Northeast 430 495 33,000  Level Fort Worth Center
Mon 04:01:06 PM 35.0489 -95.5953 38° Northeast 437 503 33,000  Level Fort Worth Center
Mon 04:02:06 PM 35.1436 -95.5094 37° Northeast 437 503 33,000  Level Fort Worth Center
Mon 04:03:06 PM 35.2403 -95.4156 38° Northeast 432 497 33,000  Level Fort Worth Center
Mon 04:03:33 PM 35.2861 -95.3731 37° Northeast 430 495 33,000  Level Memphis Center
Mon 04:04:33 PM 35.3772 -95.2869 38° Northeast 425 489 33,000  Level Memphis Center
Mon 04:05:34 PM 35.4725 -95.1956 38° Northeast 430 495 33,000  Level Memphis Center
Mon 04:06:33 PM 35.5678 -95.1042 38° Northeast 430 495 33,000  Level Memphis Center
Mon 04:07:34 PM 35.6631 -95.0100 39° Northeast 435 501 33,000  Level Memphis Center
Mon 04:08:34 PM 35.7583 -94.9183 38° Northeast 435 501 33,000  Level Memphis Center
Mon 04:09:33 PM 35.8575 -94.8239 38° Northeast 435 501 33,000  Level Memphis Center
Mon 04:10:34 PM 35.9547 -94.7317 38° Northeast 440 506 33,000  Level Memphis Center
Mon 04:11:34 PM 36.0497 -94.6367 39° Northeast 440 506 33,000  Level Memphis Center
Mon 04:12:33 PM 36.1467 -94.5439 38° Northeast 440 506 33,000  Level Memphis Center
Mon 04:14:57 PM 36.3706 -94.3203 39° Northeast 438 504 33,000  Level Kansas City Center
Mon 04:15:59 PM 36.4694 -94.2236 38° Northeast 445 512 33,000  Level Kansas City Center
Mon 04:17:01 PM 36.5672 -94.1269 38° Northeast 446 513 33,000  Level Kansas City Center
Mon 04:18:03 PM 36.6633 -94.0311 39° Northeast 442 509 33,000  Level Kansas City Center
Mon 04:19:05 PM 36.7794 -93.9161 38° Northeast 443 510 33,000  Level Kansas City Center
Mon 04:20:07 PM 36.8761 -93.8186 39° Northeast 446 513 33,000  Level Kansas City Center
Mon 04:21:09 PM 36.9647 -93.7314 38° Northeast 438 504 33,000  Level Kansas City Center
Mon 04:22:11 PM 37.0614 -93.6322 39° Northeast 445 512 33,000  Level Kansas City Center
Mon 04:23:13 PM 37.1778 -93.5156 39° Northeast 445 512 33,000  Level Kansas City Center
Mon 04:24:16 PM 37.2747 -93.4167 39° Northeast 447 514 33,000  Level Kansas City Center
Mon 04:25:18 PM 37.3725 -93.3169 39° Northeast 449 517 33,000  Level Kansas City Center
Mon 04:26:20 PM 37.4717 -93.2261 36° Northeast 440 506 33,000  Level Kansas City Center
Mon 04:27:22 PM 37.5739 -93.1344 35° Northeast 446 513 33,000  Level Kansas City Center
Mon 04:28:24 PM 37.6747 -93.0400 37° Northeast 450 518 33,000  Level Kansas City Center
Mon 04:29:26 PM 37.7767 -92.9447 36° Northeast 451 519 33,000  Level Kansas City Center
Mon 04:30:28 PM 37.8989 -92.8319 36° Northeast 450 518 33,000  Level Kansas City Center
Mon 04:31:30 PM 38.0006 -92.7367 36° Northeast 448 516 33,000  Level Kansas City Center
Mon 04:32:32 PM 38.0864 -92.6553 37° Northeast 450 518 33,000  Level Kansas City Center
Mon 04:33:34 PM 38.2058 -92.5425 37° Northeast 452 520 33,000  Level Kansas City Center
Mon 04:34:36 PM 38.3086 -92.4453 37° Northeast 453 521 33,000  Level Kansas City Center
Mon 04:35:38 PM 38.4103 -92.3486 37° Northeast 453 521 33,000  Level Kansas City Center
Mon 04:36:40 PM 38.5117 -92.2508 37° Northeast 453 521 33,000  Level Kansas City Center
Mon 04:37:42 PM 38.6122 -92.1525 37° Northeast 453 521 33,000  Level Kansas City Center
Mon 04:38:44 PM 38.7133 -92.0569 36° Northeast 452 520 33,000  Level Kansas City Center
Mon 04:39:46 PM 38.8339 -91.9403 37° Northeast 451 519 33,000  Level Kansas City Center
Mon 04:40:48 PM 38.9353 -91.8403 37° Northeast 453 521 33,000  Level Kansas City Center
Mon 04:41:50 PM 39.0358 -91.7403 38° Northeast 455 524 33,000  Level Kansas City Center
Mon 04:42:52 PM 39.1336 -91.6453 37° Northeast 454 522 33,000  Level Kansas City Center
Mon 04:43:54 PM 39.2361 -91.5464 37° Northeast 456 525 33,000  Level Kansas City Center
Mon 04:44:56 PM 39.3375 -91.4475 37° Northeast 457 526 33,000  Level Kansas City Center
Mon 04:45:58 PM 39.4386 -91.3478 37° Northeast 456 525 33,000  Level Kansas City Center
Mon 04:47:00 PM 39.5586 -91.2278 38° Northeast 454 522 33,000  Level Kansas City Center
Mon 04:48:02 PM 39.6594 -91.1286 37° Northeast 454 522 33,000  Level Kansas City Center
Mon 04:49:04 PM 39.7519 -91.0367 37° Northeast 454 522 33,000  Level Kansas City Center
Mon 04:50:06 PM 39.8700 -90.9181 38° Northeast 456 525 33,000  Level Kansas City Center
Mon 04:51:08 PM 39.9708 -90.8172 37° Northeast 457 526 33,000  Level Kansas City Center
Mon 04:52:10 PM 40.0697 -90.7147 38° Northeast 455 524 33,000  Level Kansas City Center
Mon 04:53:12 PM 40.1697 -90.6142 38° Northeast 454 522 33,000  Level Kansas City Center
Mon 04:53:35 PM 40.2100 -90.5744 37° Northeast 453 521 33,000  Level Chicago Center
Mon 04:54:37 PM 40.3097 -90.4722 38° Northeast 453 521 33,000  Level Chicago Center
Mon 04:55:39 PM 40.4094 -90.3700 38° Northeast 455 524 33,000  Level Chicago Center
Mon 04:56:41 PM 40.5089 -90.2678 38° Northeast 452 520 33,000 -672 Level Chicago Center
Mon 04:57:44 PM 40.6264 -90.1461 38° Northeast 451 519 31,600 -1,680 Descending Chicago Center
Mon 04:58:46 PM 40.7253 -90.0447 38° Northeast 452 520 29,500 -1,890 Descending Chicago Center
Mon 04:59:51 PM 40.8233 -89.9436 38° Northeast 450 518 27,600 -2,031 Descending Chicago Center
Mon 05:00:53 PM 40.9417 -89.8194 38° Northeast 453 521 25,200 -1,694 Descending Chicago Center
Mon 05:01:55 PM 41.0300 -89.7253 39° Northeast 454 522 24,100 -968 Descending Chicago Center
Mon 05:02:57 PM 41.1267 -89.6236 38° Northeast 446 513 23,200 -1,548 Descending Chicago Center
Mon 05:03:59 PM 41.1994 -89.4933 53° Northeast 445 512 20,900 -2,516 Descending Chicago Center
Mon 05:05:01 PM 41.2661 -89.3264 62° Northeast 427 491 18,000 -2,371 Descending Chicago Center
Mon 05:06:03 PM 41.3197 -89.1917 62° Northeast 415 478 16,000 -1,935 Descending Chicago Center
Mon 05:07:05 PM 41.3753 -89.0528 62° Northeast 405 466 14,000 -1,790 Descending Chicago Center
Mon 05:08:07 PM 41.4272 -88.9225 62° Northeast 398 458 12,300 -1,403 Descending Chicago Center
Mon 05:09:09 PM 41.4775 -88.7950 62° Northeast 392 451 11,100 -629 Descending Chicago Center
Mon 05:10:11 PM 41.5256 -88.6703 63° Northeast 383 441 11,000 -48 Descending Chicago Center
Mon 05:11:13 PM 41.5756 -88.5450 62° Northeast 383 441 11,000 -242 Level Chicago Center
Mon 05:12:15 PM 41.6250 -88.4353 59° Northeast 348 400 10,500 -1,113 Descending Chicago Center
Mon 05:13:17 PM 41.6906 -88.3256 51° Northeast 316 364 8,700 -1,500 Descending Chicago Center
Mon 05:14:19 PM 41.7436 -88.2353 52° Northeast 311 358 7,400 -823 Descending Chicago Center
Mon 05:15:21 PM 41.8081 -88.1800 33° Northeast 300 345 7,000 -194 Descending Chicago Center
Mon 05:16:23 PM 41.8883 -88.1739 North 290 334 7,000  Level Chicago Center
Mon 05:17:25 PM 41.9519 -88.1686 North 227 261 7,000  Level Chicago Center
Mon 05:18:27 PM 42.0117 -88.1625 North 216 249 7,000 -339 Level Chicago Center
Mon 05:19:29 PM 42.0764 -88.1825 347° North 206 237 6,300 -968 Descending Chicago Center
Mon 05:20:31 PM 42.1242 -88.2250 327° Northwest 208 239 5,000 -629 Descending Chicago Center
Mon 05:21:33 PM 42.1689 -88.2694 324° Northwest 203 234 5,000  Level Chicago Center
Mon 05:22:35 PM 42.2200 -88.2528 14° North 217 250 5,000 -242 Level Chicago Center
Mon 05:23:37 PM 42.2244 -88.1975 84° East 193 222 4,500 -484 Descending Chicago Center
Mon 05:24:39 PM 42.1858 -88.1533 140° Southeast 157 181 4,000 -242 Descending Chicago Center
Mon 05:25:41 PM 42.1528 -88.1175 141° Southeast 154 177 4,000 -48 Level Chicago Center
Mon 05:26:43 PM 42.1197 -88.0797 140° Southeast 157 181 3,900 -396 Descending Chicago Center
Mon 05:27:27 PM 42.1000 -88.0500 132° Southeast 160 184 3,300 -818 Descending Chicago TRACON

Login

Don't have an account? Register now (free) for customized features, flight alerts, and more!